sensor_id;sensor_type;location;lat;lon;timestamp;temperature;humidity
69335;SHT31;56477;52.742;15.242;2023-02-28T00:00:21;-0.82;77.90
69335;SHT31;56477;52.742;15.242;2023-02-28T00:03:07;-0.91;77.59
69335;SHT31;56477;52.742;15.242;2023-02-28T00:05:33;-0.93;77.50
69335;SHT31;56477;52.742;15.242;2023-02-28T00:07:59;-1.00;77.58
69335;SHT31;56477;52.742;15.242;2023-02-28T00:10:28;-1.07;77.48
69335;SHT31;56477;52.742;15.242;2023-02-28T00:12:58;-1.07;77.85
69335;SHT31;56477;52.742;15.242;2023-02-28T00:15:24;-1.11;78.08
69335;SHT31;56477;52.742;15.242;2023-02-28T00:17:51;-1.12;77.98
69335;SHT31;56477;52.742;15.242;2023-02-28T00:20:18;-1.17;78.17
69335;SHT31;56477;52.742;15.242;2023-02-28T00:22:47;-1.17;78.68
69335;SHT31;56477;52.742;15.242;2023-02-28T00:25:16;-1.24;78.55
69335;SHT31;56477;52.742;15.242;2023-02-28T00:27:43;-1.22;79.48
69335;SHT31;56477;52.742;15.242;2023-02-28T00:30:12;-1.24;79.69
69335;SHT31;56477;52.742;15.242;2023-02-28T00:32:39;-1.27;79.54
69335;SHT31;56477;52.742;15.242;2023-02-28T00:35:06;-1.30;79.49
69335;SHT31;56477;52.742;15.242;2023-02-28T00:37:32;-1.37;79.20
69335;SHT31;56477;52.742;15.242;2023-02-28T00:39:58;-1.41;79.42
69335;SHT31;56477;52.742;15.242;2023-02-28T00:42:24;-1.40;80.15
69335;SHT31;56477;52.742;15.242;2023-02-28T00:44:52;-1.41;80.35
69335;SHT31;56477;52.742;15.242;2023-02-28T00:47:18;-1.45;80.43
69335;SHT31;56477;52.742;15.242;2023-02-28T00:49:44;-1.47;80.54
69335;SHT31;56477;52.742;15.242;2023-02-28T00:52:10;-1.45;81.81
69335;SHT31;56477;52.742;15.242;2023-02-28T00:54:36;-1.51;81.19
69335;SHT31;56477;52.742;15.242;2023-02-28T00:57:02;-1.59;81.11
69335;SHT31;56477;52.742;15.242;2023-02-28T00:59:28;-1.56;81.71
69335;SHT31;56477;52.742;15.242;2023-02-28T01:01:54;-1.58;81.49
69335;SHT31;56477;52.742;15.242;2023-02-28T01:04:20;-1.62;81.32
69335;SHT31;56477;52.742;15.242;2023-02-28T01:06:46;-1.58;82.06
69335;SHT31;56477;52.742;15.242;2023-02-28T01:09:12;-1.62;82.56
69335;SHT31;56477;52.742;15.242;2023-02-28T01:11:38;-1.62;82.26
69335;SHT31;56477;52.742;15.242;2023-02-28T01:14:06;-1.65;82.58
69335;SHT31;56477;52.742;15.242;2023-02-28T01:16:32;-1.68;81.88
69335;SHT31;56477;52.742;15.242;2023-02-28T01:18:58;-1.69;81.92
69335;SHT31;56477;52.742;15.242;2023-02-28T01:21:24;-1.72;82.47
69335;SHT31;56477;52.742;15.242;2023-02-28T01:23:51;-1.76;82.63
69335;SHT31;56477;52.742;15.242;2023-02-28T01:26:19;-1.80;83.64
69335;SHT31;56477;52.742;15.242;2023-02-28T01:28:46;-1.86;83.97
69335;SHT31;56477;52.742;15.242;2023-02-28T01:31:13;-1.91;84.25
69335;SHT31;56477;52.742;15.242;2023-02-28T01:33:39;-1.99;84.46
69335;SHT31;56477;52.742;15.242;2023-02-28T01:36:09;-2.01;85.69
69335;SHT31;56477;52.742;15.242;2023-02-28T01:38:36;-2.06;85.67
69335;SHT31;56477;52.742;15.242;2023-02-28T01:41:02;-2.11;86.11
69335;SHT31;56477;52.742;15.242;2023-02-28T01:43:52;-2.19;86.26
69335;SHT31;56477;52.742;15.242;2023-02-28T01:46:18;-2.19;86.78
69335;SHT31;56477;52.742;15.242;2023-02-28T01:48:49;-2.19;87.85
69335;SHT31;56477;52.742;15.242;2023-02-28T01:51:38;-2.26;88.20
69335;SHT31;56477;52.742;15.242;2023-02-28T01:54:09;-2.34;88.35
69335;SHT31;56477;52.742;15.242;2023-02-28T01:56:53;-2.36;88.46
69335;SHT31;56477;52.742;15.242;2023-02-28T01:59:34;-2.37;88.80
69335;SHT31;56477;52.742;15.242;2023-02-28T02:02:02;-2.40;88.90
69335;SHT31;56477;52.742;15.242;2023-02-28T02:04:37;-2.42;88.58
69335;SHT31;56477;52.742;15.242;2023-02-28T02:07:05;-2.47;88.48
69335;SHT31;56477;52.742;15.242;2023-02-28T02:09:31;-2.49;88.12
69335;SHT31;56477;52.742;15.242;2023-02-28T02:11:57;-2.48;87.85
69335;SHT31;56477;52.742;15.242;2023-02-28T02:17:37;-2.52;87.66
69335;SHT31;56477;52.742;15.242;2023-02-28T02:21:12;-2.51;87.87
69335;SHT31;56477;52.742;15.242;2023-02-28T02:31:22;-2.64;88.11
69335;SHT31;56477;52.742;15.242;2023-02-28T02:40:04;-2.69;87.47
69335;SHT31;56477;52.742;15.242;2023-02-28T02:42:55;-2.68;87.24
69335;SHT31;56477;52.742;15.242;2023-02-28T02:45:42;-2.66;86.84
69335;SHT31;56477;52.742;15.242;2023-02-28T02:48:13;-2.68;86.80
69335;SHT31;56477;52.742;15.242;2023-02-28T02:50:48;-2.68;86.51
69335;SHT31;56477;52.742;15.242;2023-02-28T02:53:18;-2.69;86.54
69335;SHT31;56477;52.742;15.242;2023-02-28T02:55:47;-2.70;86.62
69335;SHT31;56477;52.742;15.242;2023-02-28T02:58:22;-2.66;86.86
69335;SHT31;56477;52.742;15.242;2023-02-28T03:00:58;-2.68;87.13
69335;SHT31;56477;52.742;15.242;2023-02-28T03:03:26;-2.73;87.10
69335;SHT31;56477;52.742;15.242;2023-02-28T03:06:00;-2.79;87.31
69335;SHT31;56477;52.742;15.242;2023-02-28T03:08:29;-2.78;87.90
69335;SHT31;56477;52.742;15.242;2023-02-28T03:11:03;-2.85;87.71
69335;SHT31;56477;52.742;15.242;2023-02-28T03:24:51;-2.97;88.70
69335;SHT31;56477;52.742;15.242;2023-02-28T03:27:29;-3.07;88.68
69335;SHT31;56477;52.742;15.242;2023-02-28T03:30:04;-3.06;89.08
69335;SHT31;56477;52.742;15.242;2023-02-28T03:35:39;-3.14;89.39
69335;SHT31;56477;52.742;15.242;2023-02-28T03:40:48;-3.19;89.12
69335;SHT31;56477;52.742;15.242;2023-02-28T03:43:21;-3.19;89.19
69335;SHT31;56477;52.742;15.242;2023-02-28T03:45:50;-3.24;89.33
69335;SHT31;56477;52.742;15.242;2023-02-28T03:48:43;-3.24;89.59
69335;SHT31;56477;52.742;15.242;2023-02-28T03:51:09;-3.23;89.95
69335;SHT31;56477;52.742;15.242;2023-02-28T03:53:45;-3.24;90.28
69335;SHT31;56477;52.742;15.242;2023-02-28T03:56:19;-3.26;90.49
69335;SHT31;56477;52.742;15.242;2023-02-28T03:59:34;-3.28;90.37
69335;SHT31;56477;52.742;15.242;2023-02-28T04:02:02;-3.31;90.38
69335;SHT31;56477;52.742;15.242;2023-02-28T04:04:28;-3.34;90.44
69335;SHT31;56477;52.742;15.242;2023-02-28T04:07:03;-3.33;90.70
69335;SHT31;56477;52.742;15.242;2023-02-28T04:09:29;-3.38;90.87
69335;SHT31;56477;52.742;15.242;2023-02-28T04:11:55;-3.41;90.83
69335;SHT31;56477;52.742;15.242;2023-02-28T04:14:22;-3.40;91.00
69335;SHT31;56477;52.742;15.242;2023-02-28T04:16:48;-3.40;91.25
69335;SHT31;56477;52.742;15.242;2023-02-28T04:19:14;-3.43;91.33
69335;SHT31;56477;52.742;15.242;2023-02-28T04:21:45;-3.44;91.34
69335;SHT31;56477;52.742;15.242;2023-02-28T04:24:14;-3.48;91.31
69335;SHT31;56477;52.742;15.242;2023-02-28T04:26:47;-3.52;91.36
69335;SHT31;56477;52.742;15.242;2023-02-28T04:29:22;-3.55;91.54
69335;SHT31;56477;52.742;15.242;2023-02-28T04:31:49;-3.59;91.54
69335;SHT31;56477;52.742;15.242;2023-02-28T04:34:15;-3.64;91.70
69335;SHT31;56477;52.742;15.242;2023-02-28T04:36:42;-3.64;91.99
69335;SHT31;56477;52.742;15.242;2023-02-28T04:39:08;-3.65;92.24
69335;SHT31;56477;52.742;15.242;2023-02-28T04:41:35;-3.69;92.27
69335;SHT31;56477;52.742;15.242;2023-02-28T04:44:01;-3.68;92.39
69335;SHT31;56477;52.742;15.242;2023-02-28T04:46:27;-3.74;92.51
69335;SHT31;56477;52.742;15.242;2023-02-28T04:48:53;-3.75;92.58
69335;SHT31;56477;52.742;15.242;2023-02-28T04:51:20;-3.76;92.54
69335;SHT31;56477;52.742;15.242;2023-02-28T04:53:46;-3.76;92.62
69335;SHT31;56477;52.742;15.242;2023-02-28T04:56:14;-3.76;92.57
69335;SHT31;56477;52.742;15.242;2023-02-28T04:58:42;-3.78;92.55
69335;SHT31;56477;52.742;15.242;2023-02-28T05:01:24;-3.75;92.41
69335;SHT31;56477;52.742;15.242;2023-02-28T05:03:52;-3.78;92.33
69335;SHT31;56477;52.742;15.242;2023-02-28T05:06:19;-3.78;92.31
69335;SHT31;56477;52.742;15.242;2023-02-28T05:08:46;-3.79;92.20
69335;SHT31;56477;52.742;15.242;2023-02-28T05:11:16;-3.78;92.02
69335;SHT31;56477;52.742;15.242;2023-02-28T05:13:43;-3.76;91.83
69335;SHT31;56477;52.742;15.242;2023-02-28T05:16:09;-3.72;92.08
69335;SHT31;56477;52.742;15.242;2023-02-28T05:18:36;-3.67;91.80
69335;SHT31;56477;52.742;15.242;2023-02-28T05:21:02;-3.64;91.61
69335;SHT31;56477;52.742;15.242;2023-02-28T05:23:28;-3.64;91.59
69335;SHT31;56477;52.742;15.242;2023-02-28T05:25:55;-3.65;91.46
69335;SHT31;56477;52.742;15.242;2023-02-28T05:28:21;-3.67;91.37
69335;SHT31;56477;52.742;15.242;2023-02-28T05:30:48;-3.68;91.22
69335;SHT31;56477;52.742;15.242;2023-02-28T05:33:14;-3.69;91.27
69335;SHT31;56477;52.742;15.242;2023-02-28T05:35:41;-3.69;91.16
69335;SHT31;56477;52.742;15.242;2023-02-28T05:38:08;-3.68;90.99
69335;SHT31;56477;52.742;15.242;2023-02-28T05:40:34;-3.69;90.81
69335;SHT31;56477;52.742;15.242;2023-02-28T05:43:00;-3.69;90.52
69335;SHT31;56477;52.742;15.242;2023-02-28T05:45:27;-3.69;90.48
69335;SHT31;56477;52.742;15.242;2023-02-28T05:47:56;-3.71;90.63
69335;SHT31;56477;52.742;15.242;2023-02-28T05:50:22;-3.72;90.70
69335;SHT31;56477;52.742;15.242;2023-02-28T05:52:51;-3.69;90.88
69335;SHT31;56477;52.742;15.242;2023-02-28T05:55:18;-3.69;90.88
69335;SHT31;56477;52.742;15.242;2023-02-28T05:57:44;-3.68;91.05
69335;SHT31;56477;52.742;15.242;2023-02-28T06:00:11;-3.69;91.02
69335;SHT31;56477;52.742;15.242;2023-02-28T06:02:39;-3.68;91.05
69335;SHT31;56477;52.742;15.242;2023-02-28T06:05:13;-3.68;91.30
69335;SHT31;56477;52.742;15.242;2023-02-28T06:07:39;-3.61;91.43
69335;SHT31;56477;52.742;15.242;2023-02-28T06:10:06;-3.62;91.42
69335;SHT31;56477;52.742;15.242;2023-02-28T06:12:32;-3.59;91.54
69335;SHT31;56477;52.742;15.242;2023-02-28T06:14:58;-3.59;91.51
69335;SHT31;56477;52.742;15.242;2023-02-28T06:17:24;-3.55;91.26
69335;SHT31;56477;52.742;15.242;2023-02-28T06:19:50;-3.55;91.16
69335;SHT31;56477;52.742;15.242;2023-02-28T06:22:16;-3.52;90.96
69335;SHT31;56477;52.742;15.242;2023-02-28T06:24:42;-3.48;90.95
69335;SHT31;56477;52.742;15.242;2023-02-28T06:27:08;-3.40;90.93
69335;SHT31;56477;52.742;15.242;2023-02-28T06:29:35;-3.19;90.67
69335;SHT31;56477;52.742;15.242;2023-02-28T06:32:01;-2.96;90.02
69335;SHT31;56477;52.742;15.242;2023-02-28T06:34:27;-2.68;89.42
69335;SHT31;56477;52.742;15.242;2023-02-28T06:36:53;-2.34;88.67
69335;SHT31;56477;52.742;15.242;2023-02-28T06:39:20;-2.07;87.17
69335;SHT31;56477;52.742;15.242;2023-02-28T06:41:46;-1.54;86.48
69335;SHT31;56477;52.742;15.242;2023-02-28T06:44:17;-0.74;84.28
69335;SHT31;56477;52.742;15.242;2023-02-28T06:46:44;0.11;81.15
69335;SHT31;56477;52.742;15.242;2023-02-28T06:49:11;0.86;78.47
69335;SHT31;56477;52.742;15.242;2023-02-28T06:51:39;1.17;76.04
69335;SHT31;56477;52.742;15.242;2023-02-28T06:54:05;1.94;73.90
69335;SHT31;56477;52.742;15.242;2023-02-28T06:56:34;2.08;73.12
69335;SHT31;56477;52.742;15.242;2023-02-28T06:59:01;2.37;72.54
69335;SHT31;56477;52.742;15.242;2023-02-28T07:01:27;2.52;69.43
69335;SHT31;56477;52.742;15.242;2023-02-28T07:03:54;2.87;70.88
69335;SHT31;56477;52.742;15.242;2023-02-28T07:06:22;2.95;68.48
69335;SHT31;56477;52.742;15.242;2023-02-28T07:08:50;3.38;67.50
69335;SHT31;56477;52.742;15.242;2023-02-28T07:11:17;3.79;64.34
69335;SHT31;56477;52.742;15.242;2023-02-28T07:13:44;3.48;65.69
69335;SHT31;56477;52.742;15.242;2023-02-28T07:16:11;3.86;64.69
69335;SHT31;56477;52.742;15.242;2023-02-28T07:18:37;4.08;65.19
69335;SHT31;56477;52.742;15.242;2023-02-28T07:21:06;4.96;61.85
69335;SHT31;56477;52.742;15.242;2023-02-28T07:23:51;3.67;64.17
69335;SHT31;56477;52.742;15.242;2023-02-28T07:26:18;3.21;65.76
69335;SHT31;56477;52.742;15.242;2023-02-28T07:28:46;4.00;64.75
69335;SHT31;56477;52.742;15.242;2023-02-28T07:31:13;4.93;62.39
69335;SHT31;56477;52.742;15.242;2023-02-28T07:33:42;4.44;63.59
69335;SHT31;56477;52.742;15.242;2023-02-28T07:36:11;3.67;64.80
69335;SHT31;56477;52.742;15.242;2023-02-28T07:38:44;3.80;65.95
69335;SHT31;56477;52.742;15.242;2023-02-28T07:41:11;4.83;62.74
69335;SHT31;56477;52.742;15.242;2023-02-28T07:43:38;5.54;61.19
69335;SHT31;56477;52.742;15.242;2023-02-28T07:46:10;6.42;57.08
69335;SHT31;56477;52.742;15.242;2023-02-28T07:48:36;6.85;58.38
69335;SHT31;56477;52.742;15.242;2023-02-28T07:51:02;7.27;55.30
69335;SHT31;56477;52.742;15.242;2023-02-28T07:53:29;8.49;53.07
69335;SHT31;56477;52.742;15.242;2023-02-28T07:56:00;9.12;49.63
69335;SHT31;56477;52.742;15.242;2023-02-28T07:58:27;9.30;51.78
69335;SHT31;56477;52.742;15.242;2023-02-28T08:00:53;9.61;48.29
69335;SHT31;56477;52.742;15.242;2023-02-28T08:03:21;9.80;47.80
69335;SHT31;56477;52.742;15.242;2023-02-28T08:05:47;9.22;48.92
69335;SHT31;56477;52.742;15.242;2023-02-28T08:08:15;9.80;47.80
69335;SHT31;56477;52.742;15.242;2023-02-28T08:10:41;10.22;47.59
69335;SHT31;56477;52.742;15.242;2023-02-28T08:13:07;10.53;46.31
69335;SHT31;56477;52.742;15.242;2023-02-28T08:15:33;11.03;43.54
69335;SHT31;56477;52.742;15.242;2023-02-28T08:17:59;10.60;45.17
69335;SHT31;56477;52.742;15.242;2023-02-28T08:20:26;10.56;45.87
69335;SHT31;56477;52.742;15.242;2023-02-28T08:22:52;11.07;44.37
69335;SHT31;56477;52.742;15.242;2023-02-28T08:25:19;11.50;43.46
69335;SHT31;56477;52.742;15.242;2023-02-28T08:27:45;11.83;43.54
69335;SHT31;56477;52.742;15.242;2023-02-28T08:30:12;11.41;43.89
69335;SHT31;56477;52.742;15.242;2023-02-28T08:32:39;11.79;42.03
69335;SHT31;56477;52.742;15.242;2023-02-28T08:35:06;11.34;42.67
69335;SHT31;56477;52.742;15.242;2023-02-28T08:37:32;10.34;44.42
69335;SHT31;56477;52.742;15.242;2023-02-28T08:39:58;10.41;45.09
69335;SHT31;56477;52.742;15.242;2023-02-28T08:42:24;10.31;46.83
69335;SHT31;56477;52.742;15.242;2023-02-28T08:44:50;9.76;45.97
69335;SHT31;56477;52.742;15.242;2023-02-28T08:47:16;9.77;46.15
69335;SHT31;56477;52.742;15.242;2023-02-28T08:49:42;9.36;49.25
69335;SHT31;56477;52.742;15.242;2023-02-28T08:52:08;9.47;46.98
69335;SHT31;56477;52.742;15.242;2023-02-28T08:54:35;10.27;46.48
69335;SHT31;56477;52.742;15.242;2023-02-28T08:57:02;10.72;44.50
69335;SHT31;56477;52.742;15.242;2023-02-28T08:59:29;9.63;45.11
69335;SHT31;56477;52.742;15.242;2023-02-28T09:01:55;9.97;45.53
69335;SHT31;56477;52.742;15.242;2023-02-28T09:04:21;9.64;45.74
69335;SHT31;56477;52.742;15.242;2023-02-28T09:06:47;9.67;45.58
69335;SHT31;56477;52.742;15.242;2023-02-28T09:09:15;10.11;45.88
69335;SHT31;56477;52.742;15.242;2023-02-28T09:11:41;10.39;45.04
69335;SHT31;56477;52.742;15.242;2023-02-28T09:14:07;9.32;46.11
69335;SHT31;56477;52.742;15.242;2023-02-28T09:16:33;9.23;47.54
69335;SHT31;56477;52.742;15.242;2023-02-28T09:19:00;8.51;48.67
69335;SHT31;56477;52.742;15.242;2023-02-28T09:21:27;9.11;47.35
69335;SHT31;56477;52.742;15.242;2023-02-28T09:23:53;8.92;46.89
69335;SHT31;56477;52.742;15.242;2023-02-28T09:26:22;8.81;47.00
69335;SHT31;56477;52.742;15.242;2023-02-28T09:28:49;8.10;48.43
69335;SHT31;56477;52.742;15.242;2023-02-28T09:31:21;8.07;47.74
69335;SHT31;56477;52.742;15.242;2023-02-28T09:33:53;8.21;47.12
69335;SHT31;56477;52.742;15.242;2023-02-28T09:36:19;9.00;44.94
69335;SHT31;56477;52.742;15.242;2023-02-28T09:38:46;8.74;46.04
69335;SHT31;56477;52.742;15.242;2023-02-28T09:41:23;8.98;46.50
69335;SHT31;56477;52.742;15.242;2023-02-28T09:43:56;8.85;46.64
69335;SHT31;56477;52.742;15.242;2023-02-28T09:46:48;8.65;47.10
69335;SHT31;56477;52.742;15.242;2023-02-28T09:49:15;9.23;46.24
69335;SHT31;56477;52.742;15.242;2023-02-28T09:51:57;9.14;44.18
69335;SHT31;56477;52.742;15.242;2023-02-28T09:54:28;10.05;45.01
69335;SHT31;56477;52.742;15.242;2023-02-28T09:57:15;9.93;43.63
69335;SHT31;56477;52.742;15.242;2023-02-28T10:05:21;9.15;43.73
69335;SHT31;56477;52.742;15.242;2023-02-28T10:10:50;9.76;43.33
69335;SHT31;56477;52.742;15.242;2023-02-28T10:13:27;9.53;42.92
69335;SHT31;56477;52.742;15.242;2023-02-28T10:16:29;9.73;44.75
69335;SHT31;56477;52.742;15.242;2023-02-28T10:24:51;10.15;41.34
69335;SHT31;56477;52.742;15.242;2023-02-28T10:29:46;10.55;41.86
69335;SHT31;56477;52.742;15.242;2023-02-28T10:32:33;10.28;42.02
69335;SHT31;56477;52.742;15.242;2023-02-28T10:37:39;10.02;41.97
69335;SHT31;56477;52.742;15.242;2023-02-28T10:40:07;9.56;42.61
69335;SHT31;56477;52.742;15.242;2023-02-28T10:43:01;9.97;41.98
69335;SHT31;56477;52.742;15.242;2023-02-28T10:45:32;9.90;41.14
69335;SHT31;56477;52.742;15.242;2023-02-28T11:01:24;9.57;41.73
69335;SHT31;56477;52.742;15.242;2023-02-28T11:03:52;9.49;42.13
69335;SHT31;56477;52.742;15.242;2023-02-28T11:06:26;9.60;42.88
69335;SHT31;56477;52.742;15.242;2023-02-28T11:09:00;10.02;42.11
69335;SHT31;56477;52.742;15.242;2023-02-28T11:11:28;9.88;41.89
69335;SHT31;56477;52.742;15.242;2023-02-28T11:14:04;10.17;42.25
69335;SHT31;56477;52.742;15.242;2023-02-28T11:16:35;9.69;43.57
69335;SHT31;56477;52.742;15.242;2023-02-28T11:19:04;9.35;41.46
69335;SHT31;56477;52.742;15.242;2023-02-28T11:21:36;8.80;43.34
69335;SHT31;56477;52.742;15.242;2023-02-28T11:24:28;8.64;44.08
69335;SHT31;56477;52.742;15.242;2023-02-28T11:26:55;8.50;44.16
69335;SHT31;56477;52.742;15.242;2023-02-28T11:29:30;8.59;44.58
69335;SHT31;56477;52.742;15.242;2023-02-28T11:34:32;9.29;41.26
69335;SHT31;56477;52.742;15.242;2023-02-28T11:36:59;9.18;41.24
69335;SHT31;56477;52.742;15.242;2023-02-28T11:39:27;9.00;41.21
69335;SHT31;56477;52.742;15.242;2023-02-28T11:42:07;9.40;41.58
69335;SHT31;56477;52.742;15.242;2023-02-28T11:52:52;8.91;41.61
69335;SHT31;56477;52.742;15.242;2023-02-28T11:55:26;8.72;43.16
69335;SHT31;56477;52.742;15.242;2023-02-28T12:00:40;9.18;43.61
69335;SHT31;56477;52.742;15.242;2023-02-28T12:06:20;11.01;37.85
69335;SHT31;56477;52.742;15.242;2023-02-28T12:09:04;9.23;42.29
69335;SHT31;56477;52.742;15.242;2023-02-28T12:11:51;9.87;41.36
69335;SHT31;56477;52.742;15.242;2023-02-28T12:17:27;11.44;37.63
69335;SHT31;56477;52.742;15.242;2023-02-28T12:22:32;10.05;38.56
69335;SHT31;56477;52.742;15.242;2023-02-28T12:28:09;10.32;38.10
69335;SHT31;56477;52.742;15.242;2023-02-28T12:30:51;10.14;38.78
69335;SHT31;56477;52.742;15.242;2023-02-28T12:33:23;10.73;37.56
69335;SHT31;56477;52.742;15.242;2023-02-28T12:35:57;11.10;37.75
69335;SHT31;56477;52.742;15.242;2023-02-28T12:38:29;11.24;38.00
69335;SHT31;56477;52.742;15.242;2023-02-28T12:41:00;11.03;39.43
69335;SHT31;56477;52.742;15.242;2023-02-28T12:43:34;11.72;37.04
69335;SHT31;56477;52.742;15.242;2023-02-28T12:46:33;12.27;37.86
69335;SHT31;56477;52.742;15.242;2023-02-28T12:49:22;11.30;36.37
69335;SHT31;56477;52.742;15.242;2023-02-28T12:51:51;11.16;36.25
69335;SHT31;56477;52.742;15.242;2023-02-28T12:54:40;11.34;36.32
69335;SHT31;56477;52.742;15.242;2023-02-28T12:57:25;12.62;33.74
69335;SHT31;56477;52.742;15.242;2023-02-28T12:59:57;13.40;31.82
69335;SHT31;56477;52.742;15.242;2023-02-28T13:02:53;14.47;30.66
69335;SHT31;56477;52.742;15.242;2023-02-28T13:05:50;13.94;31.69
69335;SHT31;56477;52.742;15.242;2023-02-28T13:14:05;13.44;32.07
69335;SHT31;56477;52.742;15.242;2023-02-28T13:17:01;12.69;34.12
69335;SHT31;56477;52.742;15.242;2023-02-28T13:19:30;12.16;34.59
69335;SHT31;56477;52.742;15.242;2023-02-28T13:21:58;12.65;35.25
69335;SHT31;56477;52.742;15.242;2023-02-28T13:24:47;12.23;33.04
69335;SHT31;56477;52.742;15.242;2023-02-28T13:29:43;11.32;35.82
69335;SHT31;56477;52.742;15.242;2023-02-28T13:34:40;11.52;34.47
69335;SHT31;56477;52.742;15.242;2023-02-28T13:42:36;10.66;35.33
69335;SHT31;56477;52.742;15.242;2023-02-28T13:47:45;11.01;36.71
69335;SHT31;56477;52.742;15.242;2023-02-28T13:50:33;11.28;36.87
69335;SHT31;56477;52.742;15.242;2023-02-28T13:56:40;11.52;38.19
69335;SHT31;56477;52.742;15.242;2023-02-28T13:58:55;11.89;35.65
69335;SHT31;56477;52.742;15.242;2023-02-28T14:07:01;10.83;36.35
69335;SHT31;56477;52.742;15.242;2023-02-28T14:09:34;10.87;36.91
69335;SHT31;56477;52.742;15.242;2023-02-28T14:15:36;11.25;35.70
69335;SHT31;56477;52.742;15.242;2023-02-28T14:18:14;10.89;37.15
69335;SHT31;56477;52.742;15.242;2023-02-28T14:20:42;11.04;37.75
69335;SHT31;56477;52.742;15.242;2023-02-28T14:34:45;9.40;38.54
69335;SHT31;56477;52.742;15.242;2023-02-28T14:37:20;9.19;38.71
69335;SHT31;56477;52.742;15.242;2023-02-28T14:39:48;9.09;39.90
69335;SHT31;56477;52.742;15.242;2023-02-28T14:42:34;9.36;39.90
69335;SHT31;56477;52.742;15.242;2023-02-28T14:45:00;9.43;39.33
69335;SHT31;56477;52.742;15.242;2023-02-28T14:47:30;9.18;40.74
69335;SHT31;56477;52.742;15.242;2023-02-28T14:50:00;9.16;41.50
69335;SHT31;56477;52.742;15.242;2023-02-28T14:52:29;8.80;40.36
69335;SHT31;56477;52.742;15.242;2023-02-28T14:55:04;8.97;40.60
69335;SHT31;56477;52.742;15.242;2023-02-28T14:57:38;8.54;39.90
69335;SHT31;56477;52.742;15.242;2023-02-28T15:00:13;8.63;40.52
69335;SHT31;56477;52.742;15.242;2023-02-28T15:02:41;8.77;41.98
69335;SHT31;56477;52.742;15.242;2023-02-28T15:07:39;9.56;39.75
69335;SHT31;56477;52.742;15.242;2023-02-28T15:12:58;9.26;40.19
69335;SHT31;56477;52.742;15.242;2023-02-28T15:15:29;8.92;39.98
69335;SHT31;56477;52.742;15.242;2023-02-28T15:17:59;8.89;41.28
69335;SHT31;56477;52.742;15.242;2023-02-28T15:20:26;9.23;40.94
69335;SHT31;56477;52.742;15.242;2023-02-28T15:22:55;9.32;40.61
69335;SHT31;56477;52.742;15.242;2023-02-28T15:25:22;9.07;41.28
69335;SHT31;56477;52.742;15.242;2023-02-28T15:27:51;9.21;41.14
69335;SHT31;56477;52.742;15.242;2023-02-28T15:30:30;9.08;40.51
69335;SHT31;56477;52.742;15.242;2023-02-28T15:33:21;8.81;40.81
69335;SHT31;56477;52.742;15.242;2023-02-28T15:35:48;8.49;42.90
69335;SHT31;56477;52.742;15.242;2023-02-28T15:38:25;8.44;42.59
69335;SHT31;56477;52.742;15.242;2023-02-28T15:40:54;8.09;42.09
69335;SHT31;56477;52.742;15.242;2023-02-28T15:43:30;7.92;42.11
69335;SHT31;56477;52.742;15.242;2023-02-28T15:46:02;7.70;43.98
69335;SHT31;56477;52.742;15.242;2023-02-28T15:48:31;7.82;43.61
69335;SHT31;56477;52.742;15.242;2023-02-28T15:53:57;8.05;43.28
69335;SHT31;56477;52.742;15.242;2023-02-28T15:59:00;8.12;43.44
69335;SHT31;56477;52.742;15.242;2023-02-28T16:01:37;8.10;44.37
69335;SHT31;56477;52.742;15.242;2023-02-28T16:04:06;7.99;43.91
69335;SHT31;56477;52.742;15.242;2023-02-28T16:06:37;7.22;43.85
69335;SHT31;56477;52.742;15.242;2023-02-28T16:09:06;7.06;43.17
69335;SHT31;56477;52.742;15.242;2023-02-28T16:11:38;6.58;43.70
69335;SHT31;56477;52.742;15.242;2023-02-28T16:14:05;6.55;44.53
69335;SHT31;56477;52.742;15.242;2023-02-28T16:16:31;6.57;46.09
69335;SHT31;56477;52.742;15.242;2023-02-28T16:18:58;6.27;44.80
69335;SHT31;56477;52.742;15.242;2023-02-28T16:21:25;5.99;46.94
69335;SHT31;56477;52.742;15.242;2023-02-28T16:23:51;5.56;46.68
69335;SHT31;56477;52.742;15.242;2023-02-28T16:26:22;5.20;47.01
69335;SHT31;56477;52.742;15.242;2023-02-28T16:28:51;5.07;49.57
69335;SHT31;56477;52.742;15.242;2023-02-28T16:31:17;4.90;49.80
69335;SHT31;56477;52.742;15.242;2023-02-28T16:33:44;4.80;51.34
69335;SHT31;56477;52.742;15.242;2023-02-28T16:36:15;4.62;51.18
69335;SHT31;56477;52.742;15.242;2023-02-28T16:38:42;4.52;52.42
69335;SHT31;56477;52.742;15.242;2023-02-28T16:41:12;4.42;53.35
69335;SHT31;56477;52.742;15.242;2023-02-28T16:43:43;4.28;53.97
69335;SHT31;56477;52.742;15.242;2023-02-28T16:46:10;4.15;52.68
69335;SHT31;56477;52.742;15.242;2023-02-28T16:48:38;4.01;52.53
69335;SHT31;56477;52.742;15.242;2023-02-28T16:51:15;3.90;52.87
69335;SHT31;56477;52.742;15.242;2023-02-28T16:53:42;3.81;53.13
69335;SHT31;56477;52.742;15.242;2023-02-28T16:56:17;3.76;53.78
69335;SHT31;56477;52.742;15.242;2023-02-28T16:58:44;3.63;53.32
69335;SHT31;56477;52.742;15.242;2023-02-28T17:01:11;3.55;53.49
69335;SHT31;56477;52.742;15.242;2023-02-28T17:03:37;3.48;53.99
69335;SHT31;56477;52.742;15.242;2023-02-28T17:06:04;3.46;54.38
69335;SHT31;56477;52.742;15.242;2023-02-28T17:08:31;3.36;54.06
69335;SHT31;56477;52.742;15.242;2023-02-28T17:10:58;3.28;54.89
69335;SHT31;56477;52.742;15.242;2023-02-28T17:13:24;3.25;54.84
69335;SHT31;56477;52.742;15.242;2023-02-28T17:15:50;3.23;55.73
69335;SHT31;56477;52.742;15.242;2023-02-28T17:18:18;3.19;55.68
69335;SHT31;56477;52.742;15.242;2023-02-28T17:20:45;3.23;56.08
69335;SHT31;56477;52.742;15.242;2023-02-28T17:23:12;3.18;55.85
69335;SHT31;56477;52.742;15.242;2023-02-28T17:25:37;3.18;55.14
69335;SHT31;56477;52.742;15.242;2023-02-28T17:28:04;3.16;56.47
69335;SHT31;56477;52.742;15.242;2023-02-28T17:30:33;3.07;56.54
69335;SHT31;56477;52.742;15.242;2023-02-28T17:33:00;2.94;56.07
69335;SHT31;56477;52.742;15.242;2023-02-28T17:35:25;2.83;56.86
69335;SHT31;56477;52.742;15.242;2023-02-28T17:37:52;2.73;59.28
69335;SHT31;56477;52.742;15.242;2023-02-28T17:40:21;2.67;60.57
69335;SHT31;56477;52.742;15.242;2023-02-28T17:42:47;2.60;58.22
69335;SHT31;56477;52.742;15.242;2023-02-28T17:45:14;2.57;58.86
69335;SHT31;56477;52.742;15.242;2023-02-28T17:47:43;2.49;61.78
69335;SHT31;56477;52.742;15.242;2023-02-28T17:50:16;2.36;60.88
69335;SHT31;56477;52.742;15.242;2023-02-28T17:52:42;2.28;61.29
69335;SHT31;56477;52.742;15.242;2023-02-28T17:55:09;2.23;62.56
69335;SHT31;56477;52.742;15.242;2023-02-28T17:57:35;2.15;63.76
69335;SHT31;56477;52.742;15.242;2023-02-28T18:00:01;2.13;64.01
69335;SHT31;56477;52.742;15.242;2023-02-28T18:02:32;2.06;64.67
69335;SHT31;56477;52.742;15.242;2023-02-28T18:04:58;1.91;65.34
69335;SHT31;56477;52.742;15.242;2023-02-28T18:07:24;1.82;65.13